sensor_id;sensor_type;location;lat;lon;timestamp;P1;durP1;ratioP1;P2;durP2;ratioP2
10461;SDS011;5278;42.656;23.374;2023-03-11T00:02:22;9.13;;;8.10;;
10461;SDS011;5278;42.656;23.374;2023-03-11T00:04:49;9.37;;;7.70;;
10461;SDS011;5278;42.656;23.374;2023-03-11T00:07:16;8.80;;;7.90;;
10461;SDS011;5278;42.656;23.374;2023-03-11T00:09:43;9.90;;;8.53;;
10461;SDS011;5278;42.656;23.374;2023-03-11T00:12:11;11.87;;;8.23;;
10461;SDS011;5278;42.656;23.374;2023-03-11T00:14:38;8.40;;;5.80;;
10461;SDS011;5278;42.656;23.374;2023-03-11T00:17:07;4.53;;;3.20;;
10461;SDS011;5278;42.656;23.374;2023-03-11T00:19:34;3.60;;;3.30;;
10461;SDS011;5278;42.656;23.374;2023-03-11T00:22:01;4.83;;;3.23;;
10461;SDS011;5278;42.656;23.374;2023-03-11T00:24:28;2.83;;;2.20;;
10461;SDS011;5278;42.656;23.374;2023-03-11T00:26:55;6.23;;;2.30;;
10461;SDS011;5278;42.656;23.374;2023-03-11T00:29:22;2.50;;;1.80;;
10461;SDS011;5278;42.656;23.374;2023-03-11T00:31:49;1.90;;;1.80;;
10461;SDS011;5278;42.656;23.374;2023-03-11T00:34:18;3.57;;;1.90;;
10461;SDS011;5278;42.656;23.374;2023-03-11T00:36:45;2.07;;;1.63;;
10461;SDS011;5278;42.656;23.374;2023-03-11T00:39:12;1.80;;;1.47;;
10461;SDS011;5278;42.656;23.374;2023-03-11T00:41:39;2.53;;;1.50;;
10461;SDS011;5278;42.656;23.374;2023-03-11T00:44:06;1.30;;;1.20;;
10461;SDS011;5278;42.656;23.374;2023-03-11T00:46:33;1.30;;;1.10;;
10461;SDS011;5278;42.656;23.374;2023-03-11T00:48:59;1.23;;;1.13;;
10461;SDS011;5278;42.656;23.374;2023-03-11T00:51:28;1.50;;;1.07;;
10461;SDS011;5278;42.656;23.374;2023-03-11T00:53:54;1.50;;;1.10;;
10461;SDS011;5278;42.656;23.374;2023-03-11T00:56:22;1.47;;;1.10;;
10461;SDS011;5278;42.656;23.374;2023-03-11T00:58:49;1.10;;;0.80;;
10461;SDS011;5278;42.656;23.374;2023-03-11T01:01:17;0.83;;;0.83;;
10461;SDS011;5278;42.656;23.374;2023-03-11T01:03:45;1.17;;;1.10;;
10461;SDS011;5278;42.656;23.374;2023-03-11T01:06:12;1.20;;;1.10;;
10461;SDS011;5278;42.656;23.374;2023-03-11T01:08:41;1.27;;;1.00;;
10461;SDS011;5278;42.656;23.374;2023-03-11T01:11:08;1.30;;;1.20;;
10461;SDS011;5278;42.656;23.374;2023-03-11T01:13:35;3.03;;;1.30;;
10461;SDS011;5278;42.656;23.374;2023-03-11T01:16:02;1.37;;;1.23;;
10461;SDS011;5278;42.656;23.374;2023-03-11T01:18:29;1.57;;;1.40;;
10461;SDS011;5278;42.656;23.374;2023-03-11T01:20:56;1.57;;;1.30;;
10461;SDS011;5278;42.656;23.374;2023-03-11T01:23:23;3.23;;;1.20;;
10461;SDS011;5278;42.656;23.374;2023-03-11T01:25:52;1.80;;;1.17;;
10461;SDS011;5278;42.656;23.374;2023-03-11T01:28:19;0.90;;;0.90;;
10461;SDS011;5278;42.656;23.374;2023-03-11T01:30:46;0.90;;;0.90;;
10461;SDS011;5278;42.656;23.374;2023-03-11T01:33:15;1.47;;;0.97;;
10461;SDS011;5278;42.656;23.374;2023-03-11T01:35:43;1.80;;;1.63;;
10461;SDS011;5278;42.656;23.374;2023-03-11T01:38:11;0.73;;;0.73;;
10461;SDS011;5278;42.656;23.374;2023-03-11T01:40:39;1.20;;;1.10;;
10461;SDS011;5278;42.656;23.374;2023-03-11T01:46:14;1.10;;;1.00;;
10461;SDS011;5278;42.656;23.374;2023-03-11T01:48:44;1.50;;;0.80;;
10461;SDS011;5278;42.656;23.374;2023-03-11T01:51:16;1.00;;;0.80;;
10461;SDS011;5278;42.656;23.374;2023-03-11T01:53:47;1.40;;;1.30;;
10461;SDS011;5278;42.656;23.374;2023-03-11T01:56:16;1.40;;;1.30;;
10461;SDS011;5278;42.656;23.374;2023-03-11T01:58:45;2.37;;;2.17;;
10461;SDS011;5278;42.656;23.374;2023-03-11T02:01:16;1.70;;;1.30;;
10461;SDS011;5278;42.656;23.374;2023-03-11T02:03:44;1.80;;;1.20;;
10461;SDS011;5278;42.656;23.374;2023-03-11T02:06:13;3.40;;;2.37;;
10461;SDS011;5278;42.656;23.374;2023-03-11T02:08:42;1.90;;;1.80;;
10461;SDS011;5278;42.656;23.374;2023-03-11T02:11:11;1.83;;;1.63;;
10461;SDS011;5278;42.656;23.374;2023-03-11T02:13:46;2.33;;;2.13;;
10461;SDS011;5278;42.656;23.374;2023-03-11T02:16:14;4.77;;;2.57;;
10461;SDS011;5278;42.656;23.374;2023-03-11T02:18:42;3.70;;;2.03;;
10461;SDS011;5278;42.656;23.374;2023-03-11T02:21:12;3.23;;;2.70;;
10461;SDS011;5278;42.656;23.374;2023-03-11T02:23:50;3.47;;;2.70;;
10461;SDS011;5278;42.656;23.374;2023-03-11T02:26:23;2.97;;;2.57;;
10461;SDS011;5278;42.656;23.374;2023-03-11T02:28:58;3.23;;;2.93;;
10461;SDS011;5278;42.656;23.374;2023-03-11T02:31:28;4.30;;;2.67;;
10461;SDS011;5278;42.656;23.374;2023-03-11T02:33:58;3.20;;;2.90;;
10461;SDS011;5278;42.656;23.374;2023-03-11T02:36:32;3.20;;;2.90;;
10461;SDS011;5278;42.656;23.374;2023-03-11T02:39:02;5.13;;;3.00;;
10461;SDS011;5278;42.656;23.374;2023-03-11T02:41:30;5.00;;;3.30;;
10461;SDS011;5278;42.656;23.374;2023-03-11T02:44:00;3.50;;;2.83;;
10461;SDS011;5278;42.656;23.374;2023-03-11T02:46:28;4.63;;;3.23;;
10461;SDS011;5278;42.656;23.374;2023-03-11T02:48:55;4.67;;;3.57;;
10461;SDS011;5278;42.656;23.374;2023-03-11T02:51:23;4.77;;;3.57;;
10461;SDS011;5278;42.656;23.374;2023-03-11T02:53:51;5.63;;;4.73;;
10461;SDS011;5278;42.656;23.374;2023-03-11T02:56:21;5.57;;;4.57;;
10461;SDS011;5278;42.656;23.374;2023-03-11T02:58:48;6.17;;;4.73;;
10461;SDS011;5278;42.656;23.374;2023-03-11T03:01:17;6.00;;;4.47;;
10461;SDS011;5278;42.656;23.374;2023-03-11T03:03:44;5.43;;;4.63;;
10461;SDS011;5278;42.656;23.374;2023-03-11T03:06:11;4.37;;;3.97;;
10461;SDS011;5278;42.656;23.374;2023-03-11T03:08:38;4.37;;;3.97;;
10461;SDS011;5278;42.656;23.374;2023-03-11T03:11:06;4.37;;;3.97;;
10461;SDS011;5278;42.656;23.374;2023-03-11T03:13:33;3.70;;;3.40;;
10461;SDS011;5278;42.656;23.374;2023-03-11T03:16:00;3.60;;;3.30;;
10461;SDS011;5278;42.656;23.374;2023-03-11T03:18:29;4.47;;;3.43;;
10461;SDS011;5278;42.656;23.374;2023-03-11T03:20:56;4.20;;;3.70;;
10461;SDS011;5278;42.656;23.374;2023-03-11T03:23:23;3.70;;;3.13;;
10461;SDS011;5278;42.656;23.374;2023-03-11T03:25:50;3.50;;;3.20;;
10461;SDS011;5278;42.656;23.374;2023-03-11T03:28:17;3.57;;;3.10;;
10461;SDS011;5278;42.656;23.374;2023-03-11T03:30:44;3.93;;;2.90;;
10461;SDS011;5278;42.656;23.374;2023-03-11T03:33:11;2.90;;;2.63;;
10461;SDS011;5278;42.656;23.374;2023-03-11T03:35:41;2.87;;;2.60;;
10461;SDS011;5278;42.656;23.374;2023-03-11T03:38:09;3.27;;;2.80;;
10461;SDS011;5278;42.656;23.374;2023-03-11T03:40:36;2.53;;;2.33;;
10461;SDS011;5278;42.656;23.374;2023-03-11T03:43:03;4.27;;;2.77;;
10461;SDS011;5278;42.656;23.374;2023-03-11T03:45:31;3.30;;;2.60;;
10461;SDS011;5278;42.656;23.374;2023-03-11T03:47:57;3.37;;;2.33;;
10461;SDS011;5278;42.656;23.374;2023-03-11T03:50:24;3.40;;;2.90;;
10461;SDS011;5278;42.656;23.374;2023-03-11T03:52:53;3.30;;;3.03;;
10461;SDS011;5278;42.656;23.374;2023-03-11T03:55:20;4.03;;;2.80;;
10461;SDS011;5278;42.656;23.374;2023-03-11T03:57:47;2.87;;;2.57;;
10461;SDS011;5278;42.656;23.374;2023-03-11T04:00:14;2.90;;;2.53;;
10461;SDS011;5278;42.656;23.374;2023-03-11T04:02:42;2.80;;;2.60;;
10461;SDS011;5278;42.656;23.374;2023-03-11T04:05:09;5.00;;;2.63;;
10461;SDS011;5278;42.656;23.374;2023-03-11T04:07:36;3.23;;;2.93;;
10461;SDS011;5278;42.656;23.374;2023-03-11T04:10:05;4.43;;;3.17;;
10461;SDS011;5278;42.656;23.374;2023-03-11T04:12:33;5.57;;;3.77;;
10461;SDS011;5278;42.656;23.374;2023-03-11T04:15:00;4.50;;;3.77;;
10461;SDS011;5278;42.656;23.374;2023-03-11T04:17:28;4.67;;;3.33;;
10461;SDS011;5278;42.656;23.374;2023-03-11T04:19:55;3.80;;;3.07;;
10461;SDS011;5278;42.656;23.374;2023-03-11T04:22:22;3.37;;;3.03;;
10461;SDS011;5278;42.656;23.374;2023-03-11T04:24:49;4.23;;;3.63;;
10461;SDS011;5278;42.656;23.374;2023-03-11T04:27:18;4.37;;;2.80;;
10461;SDS011;5278;42.656;23.374;2023-03-11T04:29:45;5.60;;;3.57;;
10461;SDS011;5278;42.656;23.374;2023-03-11T04:32:12;3.67;;;3.33;;
10461;SDS011;5278;42.656;23.374;2023-03-11T04:34:39;3.80;;;3.23;;
10461;SDS011;5278;42.656;23.374;2023-03-11T04:37:06;4.50;;;3.77;;
10461;SDS011;5278;42.656;23.374;2023-03-11T04:39:33;5.20;;;4.70;;
10461;SDS011;5278;42.656;23.374;2023-03-11T04:42:02;4.67;;;3.50;;
10461;SDS011;5278;42.656;23.374;2023-03-11T04:44:33;3.87;;;3.27;;
10461;SDS011;5278;42.656;23.374;2023-03-11T04:47:01;3.57;;;3.27;;
10461;SDS011;5278;42.656;23.374;2023-03-11T04:49:30;4.00;;;3.27;;
10461;SDS011;5278;42.656;23.374;2023-03-11T04:51:58;3.37;;;3.07;;
10461;SDS011;5278;42.656;23.374;2023-03-11T04:54:25;2.90;;;2.60;;
10461;SDS011;5278;42.656;23.374;2023-03-11T04:56:52;3.07;;;2.77;;
10461;SDS011;5278;42.656;23.374;2023-03-11T04:59:19;2.80;;;1.83;;
10461;SDS011;5278;42.656;23.374;2023-03-11T05:01:48;2.50;;;2.20;;
10461;SDS011;5278;42.656;23.374;2023-03-11T05:04:14;2.20;;;2.00;;
10461;SDS011;5278;42.656;23.374;2023-03-11T05:06:42;1.70;;;1.60;;
10461;SDS011;5278;42.656;23.374;2023-03-11T05:09:08;1.70;;;1.60;;
10461;SDS011;5278;42.656;23.374;2023-03-11T05:11:35;1.70;;;1.47;;
10461;SDS011;5278;42.656;23.374;2023-03-11T05:14:03;2.03;;;1.60;;
10461;SDS011;5278;42.656;23.374;2023-03-11T05:16:30;1.70;;;1.60;;
10461;SDS011;5278;42.656;23.374;2023-03-11T05:18:58;1.50;;;1.40;;
10461;SDS011;5278;42.656;23.374;2023-03-11T05:21:26;1.80;;;1.40;;
10461;SDS011;5278;42.656;23.374;2023-03-11T05:23:53;1.80;;;1.70;;
10461;SDS011;5278;42.656;23.374;2023-03-11T05:26:21;2.93;;;1.80;;
10461;SDS011;5278;42.656;23.374;2023-03-11T05:28:47;2.67;;;1.50;;
10461;SDS011;5278;42.656;23.374;2023-03-11T05:31:16;1.60;;;1.40;;
10461;SDS011;5278;42.656;23.374;2023-03-11T05:33:43;1.20;;;1.10;;
10461;SDS011;5278;42.656;23.374;2023-03-11T05:36:12;1.40;;;1.30;;
10461;SDS011;5278;42.656;23.374;2023-03-11T05:38:39;0.77;;;0.77;;
10461;SDS011;5278;42.656;23.374;2023-03-11T05:41:06;0.93;;;0.87;;
10461;SDS011;5278;42.656;23.374;2023-03-11T05:43:32;1.00;;;0.90;;
10461;SDS011;5278;42.656;23.374;2023-03-11T05:45:59;1.10;;;1.00;;
10461;SDS011;5278;42.656;23.374;2023-03-11T05:48:27;0.90;;;0.90;;
10461;SDS011;5278;42.656;23.374;2023-03-11T05:50:55;1.00;;;0.77;;
10461;SDS011;5278;42.656;23.374;2023-03-11T05:53:23;0.80;;;0.80;;
10461;SDS011;5278;42.656;23.374;2023-03-11T05:55:56;1.57;;;0.80;;
10461;SDS011;5278;42.656;23.374;2023-03-11T05:58:23;0.80;;;0.80;;
10461;SDS011;5278;42.656;23.374;2023-03-11T06:00:51;0.80;;;0.80;;
10461;SDS011;5278;42.656;23.374;2023-03-11T06:03:18;1.00;;;1.00;;
10461;SDS011;5278;42.656;23.374;2023-03-11T06:05:46;0.70;;;0.70;;
10461;SDS011;5278;42.656;23.374;2023-03-11T06:08:14;0.80;;;0.73;;
10461;SDS011;5278;42.656;23.374;2023-03-11T06:10:44;0.70;;;0.70;;
10461;SDS011;5278;42.656;23.374;2023-03-11T06:13:11;0.73;;;0.73;;
10461;SDS011;5278;42.656;23.374;2023-03-11T06:15:38;1.73;;;1.00;;
10461;SDS011;5278;42.656;23.374;2023-03-11T06:18:05;0.80;;;0.80;;
10461;SDS011;5278;42.656;23.374;2023-03-11T06:20:32;0.70;;;0.70;;
10461;SDS011;5278;42.656;23.374;2023-03-11T06:23:00;1.20;;;1.10;;
10461;SDS011;5278;42.656;23.374;2023-03-11T06:25:28;0.67;;;0.67;;
10461;SDS011;5278;42.656;23.374;2023-03-11T06:27:57;0.93;;;0.63;;
10461;SDS011;5278;42.656;23.374;2023-03-11T06:30:24;2.20;;;0.83;;
10461;SDS011;5278;42.656;23.374;2023-03-11T06:32:51;0.60;;;0.60;;
10461;SDS011;5278;42.656;23.374;2023-03-11T06:35:19;1.00;;;0.90;;
10461;SDS011;5278;42.656;23.374;2023-03-11T06:37:46;1.10;;;0.90;;
10461;SDS011;5278;42.656;23.374;2023-03-11T06:40:13;0.63;;;0.63;;
10461;SDS011;5278;42.656;23.374;2023-03-11T06:42:40;0.67;;;0.67;;
10461;SDS011;5278;42.656;23.374;2023-03-11T06:45:09;0.90;;;0.80;;
10461;SDS011;5278;42.656;23.374;2023-03-11T06:47:37;0.50;;;0.50;;
10461;SDS011;5278;42.656;23.374;2023-03-11T06:50:05;0.90;;;0.90;;
10461;SDS011;5278;42.656;23.374;2023-03-11T06:52:33;0.80;;;0.80;;
10461;SDS011;5278;42.656;23.374;2023-03-11T06:55:01;1.90;;;0.80;;
10461;SDS011;5278;42.656;23.374;2023-03-11T06:57:28;0.73;;;0.73;;
10461;SDS011;5278;42.656;23.374;2023-03-11T06:59:56;1.17;;;0.70;;
10461;SDS011;5278;42.656;23.374;2023-03-11T07:02:24;1.27;;;1.10;;
10461;SDS011;5278;42.656;23.374;2023-03-11T07:04:52;1.50;;;1.40;;
10461;SDS011;5278;42.656;23.374;2023-03-11T07:07:19;1.53;;;1.43;;
10461;SDS011;5278;42.656;23.374;2023-03-11T07:09:47;1.60;;;1.20;;
10461;SDS011;5278;42.656;23.374;2023-03-11T07:12:13;1.20;;;1.10;;
10461;SDS011;5278;42.656;23.374;2023-03-11T07:14:41;0.90;;;0.90;;
10461;SDS011;5278;42.656;23.374;2023-03-11T07:17:08;2.40;;;1.83;;
10461;SDS011;5278;42.656;23.374;2023-03-11T07:19:37;7.47;;;4.90;;
10461;SDS011;5278;42.656;23.374;2023-03-11T07:22:05;1.97;;;1.47;;
10461;SDS011;5278;42.656;23.374;2023-03-11T07:24:31;1.83;;;0.90;;
10461;SDS011;5278;42.656;23.374;2023-03-11T07:26:58;0.80;;;0.80;;
10461;SDS011;5278;42.656;23.374;2023-03-11T07:29:25;1.67;;;1.00;;
10461;SDS011;5278;42.656;23.374;2023-03-11T07:31:52;1.20;;;1.10;;
10461;SDS011;5278;42.656;23.374;2023-03-11T07:34:19;0.70;;;0.70;;
10461;SDS011;5278;42.656;23.374;2023-03-11T07:36:48;1.43;;;0.80;;
10461;SDS011;5278;42.656;23.374;2023-03-11T07:39:15;1.63;;;1.00;;
10461;SDS011;5278;42.656;23.374;2023-03-11T07:41:44;1.07;;;1.00;;
10461;SDS011;5278;42.656;23.374;2023-03-11T07:44:11;1.00;;;0.80;;
10461;SDS011;5278;42.656;23.374;2023-03-11T07:46:39;1.13;;;1.00;;
10461;SDS011;5278;42.656;23.374;2023-03-11T07:49:06;1.53;;;1.33;;
10461;SDS011;5278;42.656;23.374;2023-03-11T07:51:36;1.23;;;0.97;;
10461;SDS011;5278;42.656;23.374;2023-03-11T07:54:06;0.97;;;0.97;;
10461;SDS011;5278;42.656;23.374;2023-03-11T07:56:33;1.43;;;1.00;;
10461;SDS011;5278;42.656;23.374;2023-03-11T07:59:01;1.17;;;1.07;;
10461;SDS011;5278;42.656;23.374;2023-03-11T08:01:29;2.07;;;0.93;;
10461;SDS011;5278;42.656;23.374;2023-03-11T08:04:02;1.17;;;1.03;;
10461;SDS011;5278;42.656;23.374;2023-03-11T08:06:31;1.20;;;1.10;;
10461;SDS011;5278;42.656;23.374;2023-03-11T08:09:00;0.80;;;0.80;;
10461;SDS011;5278;42.656;23.374;2023-03-11T08:11:32;3.27;;;1.03;;
10461;SDS011;5278;42.656;23.374;2023-03-11T08:13:59;2.13;;;1.00;;
10461;SDS011;5278;42.656;23.374;2023-03-11T08:16:26;1.17;;;1.07;;
10461;SDS011;5278;42.656;23.374;2023-03-11T08:18:53;1.13;;;1.07;;
10461;SDS011;5278;42.656;23.374;2023-03-11T08:21:21;1.60;;;1.17;;
10461;SDS011;5278;42.656;23.374;2023-03-11T08:23:49;1.03;;;1.00;;
10461;SDS011;5278;42.656;23.374;2023-03-11T08:26:16;3.50;;;1.50;;
10461;SDS011;5278;42.656;23.374;2023-03-11T08:28:50;1.30;;;1.07;;
10461;SDS011;5278;42.656;23.374;2023-03-11T08:31:18;4.47;;;1.43;;
10461;SDS011;5278;42.656;23.374;2023-03-11T08:33:47;2.10;;;1.20;;
10461;SDS011;5278;42.656;23.374;2023-03-11T08:36:15;1.63;;;1.33;;
10461;SDS011;5278;42.656;23.374;2023-03-11T08:38:42;3.97;;;1.37;;
10461;SDS011;5278;42.656;23.374;2023-03-11T08:41:09;1.50;;;1.30;;
10461;SDS011;5278;42.656;23.374;2023-03-11T08:43:36;1.37;;;1.27;;
10461;SDS011;5278;42.656;23.374;2023-03-11T08:46:05;6.30;;;1.40;;
10461;SDS011;5278;42.656;23.374;2023-03-11T08:48:33;1.17;;;1.10;;
10461;SDS011;5278;42.656;23.374;2023-03-11T08:51:02;2.33;;;1.43;;
10461;SDS011;5278;42.656;23.374;2023-03-11T08:53:35;2.27;;;1.23;;
10461;SDS011;5278;42.656;23.374;2023-03-11T08:56:05;3.87;;;1.27;;
10461;SDS011;5278;42.656;23.374;2023-03-11T08:58:32;5.63;;;1.30;;
10461;SDS011;5278;42.656;23.374;2023-03-11T09:00:59;2.50;;;1.07;;
10461;SDS011;5278;42.656;23.374;2023-03-11T09:03:28;2.40;;;1.20;;
10461;SDS011;5278;42.656;23.374;2023-03-11T09:05:57;2.37;;;1.20;;
10461;SDS011;5278;42.656;23.374;2023-03-11T09:08:26;2.13;;;1.20;;
10461;SDS011;5278;42.656;23.374;2023-03-11T09:10:53;3.87;;;1.30;;
10461;SDS011;5278;42.656;23.374;2023-03-11T09:13:26;0.93;;;0.93;;
10461;SDS011;5278;42.656;23.374;2023-03-11T09:15:53;1.50;;;1.40;;
10461;SDS011;5278;42.656;23.374;2023-03-11T09:18:20;3.00;;;1.60;;
10461;SDS011;5278;42.656;23.374;2023-03-11T09:20:48;3.47;;;1.37;;
10461;SDS011;5278;42.656;23.374;2023-03-11T09:23:16;3.17;;;1.63;;
10461;SDS011;5278;42.656;23.374;2023-03-11T09:25:43;2.03;;;1.50;;
10461;SDS011;5278;42.656;23.374;2023-03-11T09:28:14;1.43;;;1.10;;
10461;SDS011;5278;42.656;23.374;2023-03-11T09:30:42;1.73;;;1.53;;
10461;SDS011;5278;42.656;23.374;2023-03-11T09:33:09;1.40;;;1.10;;
10461;SDS011;5278;42.656;23.374;2023-03-11T09:35:37;1.30;;;1.20;;
10461;SDS011;5278;42.656;23.374;2023-03-11T09:38:06;2.03;;;1.40;;
10461;SDS011;5278;42.656;23.374;2023-03-11T09:40:38;3.37;;;1.10;;
10461;SDS011;5278;42.656;23.374;2023-03-11T09:43:16;5.83;;;1.43;;
10461;SDS011;5278;42.656;23.374;2023-03-11T09:45:54;2.10;;;1.53;;
10461;SDS011;5278;42.656;23.374;2023-03-11T09:48:30;1.93;;;1.27;;
10461;SDS011;5278;42.656;23.374;2023-03-11T09:51:07;3.72;;;1.70;;
10461;SDS011;5278;42.656;23.374;2023-03-11T09:53:42;2.13;;;1.17;;
10461;SDS011;5278;42.656;23.374;2023-03-11T09:56:10;8.90;;;1.75;;
10461;SDS011;5278;42.656;23.374;2023-03-11T09:58:41;1.92;;;1.38;;
10461;SDS011;5278;42.656;23.374;2023-03-11T10:01:13;9.32;;;2.28;;
10461;SDS011;5278;42.656;23.374;2023-03-11T10:03:45;2.00;;;1.50;;
10461;SDS011;5278;42.656;23.374;2023-03-11T10:06:14;2.00;;;1.30;;
10461;SDS011;5278;42.656;23.374;2023-03-11T10:08:46;1.95;;;1.20;;
10461;SDS011;5278;42.656;23.374;2023-03-11T10:11:25;2.53;;;1.30;;
10461;SDS011;5278;42.656;23.374;2023-03-11T10:14:02;2.93;;;1.37;;
10461;SDS011;5278;42.656;23.374;2023-03-11T10:16:40;2.20;;;1.30;;
10461;SDS011;5278;42.656;23.374;2023-03-11T10:19:14;2.08;;;1.33;;
10461;SDS011;5278;42.656;23.374;2023-03-11T10:21:52;3.22;;;1.42;;
10461;SDS011;5278;42.656;23.374;2023-03-11T10:24:35;1.80;;;1.52;;
10461;SDS011;5278;42.656;23.374;2023-03-11T10:27:12;1.92;;;1.35;;
10461;SDS011;5278;42.656;23.374;2023-03-11T10:29:46;2.55;;;1.38;;
10461;SDS011;5278;42.656;23.374;2023-03-11T10:32:19;2.53;;;1.52;;
10461;SDS011;5278;42.656;23.374;2023-03-11T10:34:53;1.85;;;1.75;;
10461;SDS011;5278;42.656;23.374;2023-03-11T10:37:26;3.33;;;1.57;;
10461;SDS011;5278;42.656;23.374;2023-03-11T10:39:59;2.60;;;1.47;;
10461;SDS011;5278;42.656;23.374;2023-03-11T10:42:34;4.00;;;1.60;;
10461;SDS011;5278;42.656;23.374;2023-03-11T10:45:02;3.63;;;1.60;;
10461;SDS011;5278;42.656;23.374;2023-03-11T10:47:31;1.63;;;1.30;;
10461;SDS011;5278;42.656;23.374;2023-03-11T10:49:58;2.17;;;1.50;;
10461;SDS011;5278;42.656;23.374;2023-03-11T10:52:25;2.40;;;1.50;;
10461;SDS011;5278;42.656;23.374;2023-03-11T10:54:59;2.80;;;1.50;;
10461;SDS011;5278;42.656;23.374;2023-03-11T10:57:28;1.90;;;1.60;;
10461;SDS011;5278;42.656;23.374;2023-03-11T10:59:58;1.13;;;1.10;;
10461;SDS011;5278;42.656;23.374;2023-03-11T11:02:37;1.70;;;1.30;;
10461;SDS011;5278;42.656;23.374;2023-03-11T11:05:17;1.47;;;1.07;;
10461;SDS011;5278;42.656;23.374;2023-03-11T11:08:01;1.77;;;1.30;;
10461;SDS011;5278;42.656;23.374;2023-03-11T11:10:31;1.77;;;1.20;;
10461;SDS011;5278;42.656;23.374;2023-03-11T11:12:59;1.17;;;1.07;;
10461;SDS011;5278;42.656;23.374;2023-03-11T11:15:29;2.77;;;1.37;;
10461;SDS011;5278;42.656;23.374;2023-03-11T11:17:57;1.90;;;1.53;;
10461;SDS011;5278;42.656;23.374;2023-03-11T11:20:27;13.13;;;2.20;;
10461;SDS011;5278;42.656;23.374;2023-03-11T11:22:56;3.40;;;1.30;;
10461;SDS011;5278;42.656;23.374;2023-03-11T11:25:29;1.50;;;1.23;;
10461;SDS011;5278;42.656;23.374;2023-03-11T11:28:00;2.17;;;1.47;;
10461;SDS011;5278;42.656;23.374;2023-03-11T11:30:31;3.17;;;2.37;;
10461;SDS011;5278;42.656;23.374;2023-03-11T11:35:48;2.23;;;1.63;;
10461;SDS011;5278;42.656;23.374;2023-03-11T11:38:17;8.00;;;2.20;;
10461;SDS011;5278;42.656;23.374;2023-03-11T11:40:48;2.37;;;1.40;;
10461;SDS011;5278;42.656;23.374;2023-03-11T11:43:15;2.33;;;2.00;;
10461;SDS011;5278;42.656;23.374;2023-03-11T11:45:44;2.40;;;1.63;;
10461;SDS011;5278;42.656;23.374;2023-03-11T11:48:17;2.13;;;1.93;;
10461;SDS011;5278;42.656;23.374;2023-03-11T11:50:50;3.40;;;1.70;;
10461;SDS011;5278;42.656;23.374;2023-03-11T11:53:20;1.70;;;1.60;;
10461;SDS011;5278;42.656;23.374;2023-03-11T11:55:54;1.57;;;1.30;;
10461;SDS011;5278;42.656;23.374;2023-03-11T11:58:22;1.73;;;1.40;;
10461;SDS011;5278;42.656;23.374;2023-03-11T12:00:53;2.50;;;1.23;;
10461;SDS011;5278;42.656;23.374;2023-03-11T12:03:43;3.77;;;2.40;;
10461;SDS011;5278;42.656;23.374;2023-03-11T12:06:24;3.80;;;2.03;;
10461;SDS011;5278;42.656;23.374;2023-03-11T12:09:00;1.87;;;1.40;;
10461;SDS011;5278;42.656;23.374;2023-03-11T12:11:35;5.53;;;2.00;;
10461;SDS011;5278;42.656;23.374;2023-03-11T12:14:08;3.17;;;1.60;;
10461;SDS011;5278;42.656;23.374;2023-03-11T12:16:42;2.20;;;1.73;;
10461;SDS011;5278;42.656;23.374;2023-03-11T12:19:21;3.50;;;1.60;;
10461;SDS011;5278;42.656;23.374;2023-03-11T12:22:02;2.00;;;1.80;;
10461;SDS011;5278;42.656;23.374;2023-03-11T12:24:50;3.03;;;1.40;;
10461;SDS011;5278;42.656;23.374;2023-03-11T12:27:39;2.20;;;1.37;;
10461;SDS011;5278;42.656;23.374;2023-03-11T12:30:11;1.57;;;1.37;;
10461;SDS011;5278;42.656;23.374;2023-03-11T12:32:44;3.73;;;1.77;;
10461;SDS011;5278;42.656;23.374;2023-03-11T12:35:19;1.90;;;1.67;;
10461;SDS011;5278;42.656;23.374;2023-03-11T12:37:54;2.17;;;1.70;;
10461;SDS011;5278;42.656;23.374;2023-03-11T12:40:38;3.37;;;1.70;;
10461;SDS011;5278;42.656;23.374;2023-03-11T12:49:42;3.70;;;1.53;;
10461;SDS011;5278;42.656;23.374;2023-03-11T12:52:23;2.27;;;1.20;;
10461;SDS011;5278;42.656;23.374;2023-03-11T12:58:00;2.13;;;1.40;;
10461;SDS011;5278;42.656;23.374;2023-03-11T13:00:56;3.57;;;1.17;;
10461;SDS011;5278;42.656;23.374;2023-03-11T13:03:47;1.83;;;1.40;;
10461;SDS011;5278;42.656;23.374;2023-03-11T13:06:29;60.50;;;9.37;;
10461;SDS011;5278;42.656;23.374;2023-03-11T13:09:13;81.00;;;9.50;;
10461;SDS011;5278;42.656;23.374;2023-03-11T13:11:42;17.67;;;3.03;;
10461;SDS011;5278;42.656;23.374;2023-03-11T13:14:27;5.73;;;1.80;;
10461;SDS011;5278;42.656;23.374;2023-03-11T13:16:56;2.20;;;1.43;;
10461;SDS011;5278;42.656;23.374;2023-03-11T13:19:52;1.77;;;1.33;;
10461;SDS011;5278;42.656;23.374;2023-03-11T13:25:31;3.97;;;1.37;;
10461;SDS011;5278;42.656;23.374;2023-03-11T13:28:06;2.27;;;2.07;;
10461;SDS011;5278;42.656;23.374;2023-03-11T13:30:58;3.37;;;2.60;;
10461;SDS011;5278;42.656;23.374;2023-03-11T13:33:46;3.10;;;1.60;;
10461;SDS011;5278;42.656;23.374;2023-03-11T13:36:24;3.53;;;1.50;;
10461;SDS011;5278;42.656;23.374;2023-03-11T13:39:07;2.43;;;1.30;;
10461;SDS011;5278;42.656;23.374;2023-03-11T13:42:12;1.57;;;1.40;;
10461;SDS011;5278;42.656;23.374;2023-03-11T13:44:43;1.30;;;1.20;;
10461;SDS011;5278;42.656;23.374;2023-03-11T13:47:12;4.90;;;1.60;;
10461;SDS011;5278;42.656;23.374;2023-03-11T13:49:42;1.70;;;1.40;;
10461;SDS011;5278;42.656;23.374;2023-03-11T13:52:16;1.30;;;1.20;;
10461;SDS011;5278;42.656;23.374;2023-03-11T13:54:51;2.03;;;1.30;;
10461;SDS011;5278;42.656;23.374;2023-03-11T13:57:26;1.43;;;1.23;;
10461;SDS011;5278;42.656;23.374;2023-03-11T13:59:55;1.77;;;1.10;;
10461;SDS011;5278;42.656;23.374;2023-03-11T14:02:23;1.97;;;1.63;;
10461;SDS011;5278;42.656;23.374;2023-03-11T14:04:53;1.90;;;1.60;;
10461;SDS011;5278;42.656;23.374;2023-03-11T14:07:26;1.07;;;1.03;;
10461;SDS011;5278;42.656;23.374;2023-03-11T14:12:42;1.83;;;1.50;;
10461;SDS011;5278;42.656;23.374;2023-03-11T14:15:11;2.73;;;1.57;;
10461;SDS011;5278;42.656;23.374;2023-03-11T14:17:41;2.47;;;2.00;;
10461;SDS011;5278;42.656;23.374;2023-03-11T14:20:11;1.73;;;1.63;;
10461;SDS011;5278;42.656;23.374;2023-03-11T14:22:48;3.93;;;2.17;;
10461;SDS011;5278;42.656;23.374;2023-03-11T14:25:17;2.00;;;1.80;;
10461;SDS011;5278;42.656;23.374;2023-03-11T14:27:47;3.00;;;2.10;;
10461;SDS011;5278;42.656;23.374;2023-03-11T14:30:19;1.70;;;1.60;;
10461;SDS011;5278;42.656;23.374;2023-03-11T14:32:54;1.97;;;1.60;;
10461;SDS011;5278;42.656;23.374;2023-03-11T14:35:27;1.93;;;1.53;;
10461;SDS011;5278;42.656;23.374;2023-03-11T14:37:56;4.20;;;1.97;;
10461;SDS011;5278;42.656;23.374;2023-03-11T14:40:27;8.50;;;5.40;;
10461;SDS011;5278;42.656;23.374;2023-03-11T14:42:57;5.67;;;2.20;;
10461;SDS011;5278;42.656;23.374;2023-03-11T14:45:27;2.33;;;2.13;;
10461;SDS011;5278;42.656;23.374;2023-03-11T14:47:58;1.97;;;1.60;;
10461;SDS011;5278;42.656;23.374;2023-03-11T14:50:29;1.80;;;1.70;;
10461;SDS011;5278;42.656;23.374;2023-03-11T14:53:01;4.37;;;1.63;;
10461;SDS011;5278;42.656;23.374;2023-03-11T14:55:34;2.60;;;2.13;;
10461;SDS011;5278;42.656;23.374;2023-03-11T14:58:04;3.90;;;1.90;;
10461;SDS011;5278;42.656;23.374;2023-03-11T15:00:40;3.30;;;2.70;;
10461;SDS011;5278;42.656;23.374;2023-03-11T15:03:13;2.57;;;2.37;;
10461;SDS011;5278;42.656;23.374;2023-03-11T15:05:48;4.00;;;2.50;;
10461;SDS011;5278;42.656;23.374;2023-03-11T15:08:20;3.10;;;2.27;;
10461;SDS011;5278;42.656;23.374;2023-03-11T15:11:02;2.67;;;2.00;;
10461;SDS011;5278;42.656;23.374;2023-03-11T15:13:36;2.37;;;2.00;;
10461;SDS011;5278;42.656;23.374;2023-03-11T15:16:05;3.97;;;2.17;;
10461;SDS011;5278;42.656;23.374;2023-03-11T15:18:46;2.37;;;1.70;;
10461;SDS011;5278;42.656;23.374;2023-03-11T15:21:13;3.33;;;1.90;;
10461;SDS011;5278;42.656;23.374;2023-03-11T15:23:47;3.00;;;2.00;;
10461;SDS011;5278;42.656;23.374;2023-03-11T15:26:22;2.83;;;2.23;;
10461;SDS011;5278;42.656;23.374;2023-03-11T15:28:54;1.60;;;1.50;;